sensor_id;sensor_type;location;lat;lon;timestamp;P1;durP1;ratioP1;P2;durP2;ratioP2
39676;SDS011;27789;50.840;4.386;2022-11-25T00:01:07;21.27;;;4.30;;
39676;SDS011;27789;50.840;4.386;2022-11-25T00:03:35;19.27;;;4.47;;
39676;SDS011;27789;50.840;4.386;2022-11-25T00:08:36;29.52;;;4.20;;
39676;SDS011;27789;50.840;4.386;2022-11-25T00:11:03;19.83;;;3.80;;
39676;SDS011;27789;50.840;4.386;2022-11-25T00:13:29;17.48;;;3.25;;
39676;SDS011;27789;50.840;4.386;2022-11-25T00:15:55;13.82;;;3.28;;
39676;SDS011;27789;50.840;4.386;2022-11-25T00:18:24;17.90;;;3.80;;
39676;SDS011;27789;50.840;4.386;2022-11-25T00:20:50;18.10;;;3.97;;
39676;SDS011;27789;50.840;4.386;2022-11-25T00:23:15;26.30;;;4.50;;
39676;SDS011;27789;50.840;4.386;2022-11-25T00:25:41;25.98;;;4.45;;
39676;SDS011;27789;50.840;4.386;2022-11-25T00:28:06;25.05;;;4.75;;
39676;SDS011;27789;50.840;4.386;2022-11-25T00:30:32;29.48;;;5.30;;
39676;SDS011;27789;50.840;4.386;2022-11-25T00:32:57;15.00;;;3.70;;
39676;SDS011;27789;50.840;4.386;2022-11-25T00:35:23;22.00;;;6.53;;
39676;SDS011;27789;50.840;4.386;2022-11-25T00:37:49;18.52;;;3.90;;
39676;SDS011;27789;50.840;4.386;2022-11-25T00:40:14;15.52;;;4.20;;
39676;SDS011;27789;50.840;4.386;2022-11-25T00:42:40;20.73;;;4.15;;
39676;SDS011;27789;50.840;4.386;2022-11-25T00:45:16;10.02;;;2.65;;
39676;SDS011;27789;50.840;4.386;2022-11-25T00:47:42;7.72;;;1.95;;
39676;SDS011;27789;50.840;4.386;2022-11-25T00:50:07;10.05;;;1.27;;
39676;SDS011;27789;50.840;4.386;2022-11-25T00:52:33;5.18;;;1.15;;
39676;SDS011;27789;50.840;4.386;2022-11-25T00:55:01;6.95;;;1.23;;
39676;SDS011;27789;50.840;4.386;2022-11-25T00:57:27;4.50;;;1.30;;
39676;SDS011;27789;50.840;4.386;2022-11-25T00:59:53;12.32;;;2.03;;
39676;SDS011;27789;50.840;4.386;2022-11-25T01:02:19;2.80;;;1.15;;
39676;SDS011;27789;50.840;4.386;2022-11-25T01:04:48;4.80;;;0.98;;
39676;SDS011;27789;50.840;4.386;2022-11-25T01:07:14;8.77;;;0.93;;
39676;SDS011;27789;50.840;4.386;2022-11-25T01:09:40;5.97;;;1.48;;
39676;SDS011;27789;50.840;4.386;2022-11-25T01:12:06;7.47;;;1.42;;
39676;SDS011;27789;50.840;4.386;2022-11-25T01:14:32;9.32;;;1.40;;
39676;SDS011;27789;50.840;4.386;2022-11-25T01:16:58;5.68;;;1.00;;
39676;SDS011;27789;50.840;4.386;2022-11-25T01:19:24;4.60;;;1.20;;
39676;SDS011;27789;50.840;4.386;2022-11-25T01:21:49;2.30;;;0.93;;
39676;SDS011;27789;50.840;4.386;2022-11-25T01:24:15;4.75;;;1.25;;
39676;SDS011;27789;50.840;4.386;2022-11-25T01:26:42;5.25;;;1.30;;
39676;SDS011;27789;50.840;4.386;2022-11-25T01:29:15;2.97;;;1.05;;
39676;SDS011;27789;50.840;4.386;2022-11-25T01:31:42;7.13;;;1.83;;
39676;SDS011;27789;50.840;4.386;2022-11-25T01:34:15;5.47;;;0.98;;
39676;SDS011;27789;50.840;4.386;2022-11-25T01:36:43;9.43;;;1.33;;
39676;SDS011;27789;50.840;4.386;2022-11-25T01:39:12;6.55;;;1.10;;
39676;SDS011;27789;50.840;4.386;2022-11-25T01:41:41;4.82;;;0.85;;
39676;SDS011;27789;50.840;4.386;2022-11-25T01:44:09;4.25;;;1.10;;
39676;SDS011;27789;50.840;4.386;2022-11-25T01:52:17;7.57;;;1.30;;
39676;SDS011;27789;50.840;4.386;2022-11-25T01:54:52;5.50;;;1.17;;
39676;SDS011;27789;50.840;4.386;2022-11-25T01:57:30;2.28;;;0.80;;
39676;SDS011;27789;50.840;4.386;2022-11-25T02:00:03;2.88;;;0.85;;
39676;SDS011;27789;50.840;4.386;2022-11-25T02:02:30;3.25;;;1.10;;
39676;SDS011;27789;50.840;4.386;2022-11-25T02:04:56;2.33;;;1.50;;
39676;SDS011;27789;50.840;4.386;2022-11-25T02:10:01;3.22;;;0.90;;
39676;SDS011;27789;50.840;4.386;2022-11-25T02:12:29;4.28;;;0.98;;
39676;SDS011;27789;50.840;4.386;2022-11-25T02:14:56;6.25;;;1.40;;
39676;SDS011;27789;50.840;4.386;2022-11-25T02:17:23;4.10;;;1.00;;
39676;SDS011;27789;50.840;4.386;2022-11-25T02:25:18;3.83;;;1.15;;
39676;SDS011;27789;50.840;4.386;2022-11-25T02:27:47;1.52;;;0.65;;
39676;SDS011;27789;50.840;4.386;2022-11-25T02:30:16;2.88;;;1.45;;
39676;SDS011;27789;50.840;4.386;2022-11-25T02:32:43;5.57;;;0.98;;
39676;SDS011;27789;50.840;4.386;2022-11-25T02:35:20;1.52;;;0.90;;
39676;SDS011;27789;50.840;4.386;2022-11-25T02:37:58;2.58;;;0.90;;
39676;SDS011;27789;50.840;4.386;2022-11-25T02:40:29;3.45;;;0.75;;
39676;SDS011;27789;50.840;4.386;2022-11-25T02:42:55;4.85;;;1.30;;
39676;SDS011;27789;50.840;4.386;2022-11-25T02:45:46;4.13;;;1.20;;
39676;SDS011;27789;50.840;4.386;2022-11-25T02:48:15;2.53;;;1.00;;
39676;SDS011;27789;50.840;4.386;2022-11-25T02:50:41;2.67;;;1.20;;
39676;SDS011;27789;50.840;4.386;2022-11-25T02:53:06;3.60;;;1.20;;
39676;SDS011;27789;50.840;4.386;2022-11-25T02:55:32;4.47;;;1.23;;
39676;SDS011;27789;50.840;4.386;2022-11-25T02:57:58;4.68;;;1.30;;
39676;SDS011;27789;50.840;4.386;2022-11-25T03:00:24;9.07;;;1.50;;
39676;SDS011;27789;50.840;4.386;2022-11-25T03:02:53;9.45;;;1.50;;
39676;SDS011;27789;50.840;4.386;2022-11-25T03:05:19;5.78;;;1.50;;
39676;SDS011;27789;50.840;4.386;2022-11-25T03:07:46;6.45;;;1.50;;
39676;SDS011;27789;50.840;4.386;2022-11-25T03:10:11;11.00;;;2.17;;
39676;SDS011;27789;50.840;4.386;2022-11-25T03:12:37;8.88;;;2.08;;
39676;SDS011;27789;50.840;4.386;2022-11-25T03:15:03;8.05;;;2.00;;
39676;SDS011;27789;50.840;4.386;2022-11-25T03:17:29;6.05;;;1.70;;
39676;SDS011;27789;50.840;4.386;2022-11-25T03:19:55;9.02;;;1.52;;
39676;SDS011;27789;50.840;4.386;2022-11-25T03:22:20;10.18;;;2.40;;
39676;SDS011;27789;50.840;4.386;2022-11-25T03:24:46;11.27;;;2.20;;
39676;SDS011;27789;50.840;4.386;2022-11-25T03:27:11;7.32;;;2.00;;
39676;SDS011;27789;50.840;4.386;2022-11-25T03:29:37;9.80;;;3.20;;
39676;SDS011;27789;50.840;4.386;2022-11-25T03:32:03;10.02;;;3.80;;
39676;SDS011;27789;50.840;4.386;2022-11-25T03:34:28;9.77;;;2.28;;
39676;SDS011;27789;50.840;4.386;2022-11-25T03:36:54;13.27;;;2.30;;
39676;SDS011;27789;50.840;4.386;2022-11-25T03:39:19;13.40;;;2.95;;
39676;SDS011;27789;50.840;4.386;2022-11-25T03:41:45;14.05;;;3.28;;
39676;SDS011;27789;50.840;4.386;2022-11-25T03:44:11;10.88;;;3.00;;
39676;SDS011;27789;50.840;4.386;2022-11-25T03:46:36;11.18;;;2.35;;
39676;SDS011;27789;50.840;4.386;2022-11-25T03:49:02;10.73;;;2.30;;
39676;SDS011;27789;50.840;4.386;2022-11-25T03:51:27;17.88;;;3.20;;
39676;SDS011;27789;50.840;4.386;2022-11-25T03:53:53;8.68;;;1.92;;
39676;SDS011;27789;50.840;4.386;2022-11-25T03:56:18;11.63;;;3.47;;
39676;SDS011;27789;50.840;4.386;2022-11-25T03:58:44;16.73;;;2.97;;
39676;SDS011;27789;50.840;4.386;2022-11-25T04:01:10;13.45;;;2.63;;
39676;SDS011;27789;50.840;4.386;2022-11-25T04:03:35;12.23;;;3.08;;
39676;SDS011;27789;50.840;4.386;2022-11-25T04:06:01;6.85;;;2.72;;
39676;SDS011;27789;50.840;4.386;2022-11-25T04:08:26;11.95;;;3.53;;
39676;SDS011;27789;50.840;4.386;2022-11-25T04:10:52;9.90;;;2.92;;
39676;SDS011;27789;50.840;4.386;2022-11-25T04:13:18;14.77;;;3.00;;
39676;SDS011;27789;50.840;4.386;2022-11-25T04:15:44;9.35;;;2.05;;
39676;SDS011;27789;50.840;4.386;2022-11-25T04:18:11;13.80;;;2.80;;
39676;SDS011;27789;50.840;4.386;2022-11-25T04:20:40;10.13;;;3.17;;
39676;SDS011;27789;50.840;4.386;2022-11-25T04:23:06;5.57;;;2.60;;
39676;SDS011;27789;50.840;4.386;2022-11-25T04:25:33;16.15;;;3.05;;
39676;SDS011;27789;50.840;4.386;2022-11-25T04:28:00;14.45;;;3.22;;
39676;SDS011;27789;50.840;4.386;2022-11-25T04:30:26;15.77;;;3.45;;
39676;SDS011;27789;50.840;4.386;2022-11-25T04:32:51;8.88;;;2.58;;
39676;SDS011;27789;50.840;4.386;2022-11-25T04:35:17;9.88;;;2.65;;
39676;SDS011;27789;50.840;4.386;2022-11-25T04:37:43;18.10;;;3.65;;
39676;SDS011;27789;50.840;4.386;2022-11-25T04:40:08;8.98;;;2.53;;
39676;SDS011;27789;50.840;4.386;2022-11-25T04:42:34;10.63;;;2.63;;
39676;SDS011;27789;50.840;4.386;2022-11-25T04:45:09;8.07;;;2.55;;
39676;SDS011;27789;50.840;4.386;2022-11-25T04:47:38;13.55;;;3.10;;
39676;SDS011;27789;50.840;4.386;2022-11-25T04:50:04;10.35;;;3.28;;
39676;SDS011;27789;50.840;4.386;2022-11-25T04:52:33;11.68;;;2.63;;
39676;SDS011;27789;50.840;4.386;2022-11-25T04:54:59;10.30;;;3.13;;
39676;SDS011;27789;50.840;4.386;2022-11-25T04:57:24;12.88;;;2.70;;
39676;SDS011;27789;50.840;4.386;2022-11-25T04:59:50;11.93;;;3.13;;
39676;SDS011;27789;50.840;4.386;2022-11-25T05:02:22;12.15;;;3.45;;
39676;SDS011;27789;50.840;4.386;2022-11-25T05:04:51;12.57;;;2.70;;
39676;SDS011;27789;50.840;4.386;2022-11-25T05:07:18;10.52;;;2.83;;
39676;SDS011;27789;50.840;4.386;2022-11-25T05:09:45;10.25;;;2.90;;
39676;SDS011;27789;50.840;4.386;2022-11-25T05:12:12;13.55;;;3.17;;
39676;SDS011;27789;50.840;4.386;2022-11-25T05:14:49;11.88;;;2.78;;
39676;SDS011;27789;50.840;4.386;2022-11-25T05:17:16;15.90;;;2.92;;
39676;SDS011;27789;50.840;4.386;2022-11-25T05:19:43;9.32;;;2.72;;
39676;SDS011;27789;50.840;4.386;2022-11-25T05:22:13;7.65;;;3.13;;
39676;SDS011;27789;50.840;4.386;2022-11-25T05:24:40;9.90;;;2.85;;
39676;SDS011;27789;50.840;4.386;2022-11-25T05:27:06;11.75;;;3.20;;
39676;SDS011;27789;50.840;4.386;2022-11-25T05:29:32;12.65;;;2.72;;
39676;SDS011;27789;50.840;4.386;2022-11-25T05:31:57;8.85;;;3.20;;
39676;SDS011;27789;50.840;4.386;2022-11-25T05:34:23;14.30;;;2.97;;
39676;SDS011;27789;50.840;4.386;2022-11-25T05:36:48;11.50;;;2.65;;
39676;SDS011;27789;50.840;4.386;2022-11-25T05:39:15;11.35;;;2.60;;
39676;SDS011;27789;50.840;4.386;2022-11-25T05:41:41;20.30;;;3.00;;
39676;SDS011;27789;50.840;4.386;2022-11-25T05:44:07;6.93;;;2.50;;
39676;SDS011;27789;50.840;4.386;2022-11-25T05:46:32;10.85;;;2.85;;
39676;SDS011;27789;50.840;4.386;2022-11-25T05:48:58;14.98;;;2.78;;
39676;SDS011;27789;50.840;4.386;2022-11-25T05:51:24;12.70;;;2.67;;
39676;SDS011;27789;50.840;4.386;2022-11-25T05:53:50;11.77;;;2.85;;
39676;SDS011;27789;50.840;4.386;2022-11-25T05:56:16;11.60;;;2.33;;
39676;SDS011;27789;50.840;4.386;2022-11-25T05:58:42;14.20;;;3.17;;
39676;SDS011;27789;50.840;4.386;2022-11-25T06:01:08;17.08;;;3.35;;
39676;SDS011;27789;50.840;4.386;2022-11-25T06:03:35;14.45;;;3.33;;
39676;SDS011;27789;50.840;4.386;2022-11-25T06:06:01;24.30;;;5.72;;
39676;SDS011;27789;50.840;4.386;2022-11-25T06:08:27;17.30;;;3.35;;
39676;SDS011;27789;50.840;4.386;2022-11-25T06:10:53;14.88;;;3.65;;
39676;SDS011;27789;50.840;4.386;2022-11-25T06:13:19;11.05;;;2.72;;
39676;SDS011;27789;50.840;4.386;2022-11-25T06:15:45;10.93;;;2.97;;
39676;SDS011;27789;50.840;4.386;2022-11-25T06:18:12;8.27;;;3.30;;
39676;SDS011;27789;50.840;4.386;2022-11-25T06:20:39;12.77;;;3.00;;
39676;SDS011;27789;50.840;4.386;2022-11-25T06:23:06;16.48;;;4.43;;
39676;SDS011;27789;50.840;4.386;2022-11-25T06:25:33;16.45;;;3.25;;
39676;SDS011;27789;50.840;4.386;2022-11-25T06:27:59;17.60;;;3.92;;
39676;SDS011;27789;50.840;4.386;2022-11-25T06:30:25;16.95;;;3.10;;
39676;SDS011;27789;50.840;4.386;2022-11-25T06:32:52;13.15;;;2.85;;
39676;SDS011;27789;50.840;4.386;2022-11-25T06:35:19;10.55;;;2.65;;
39676;SDS011;27789;50.840;4.386;2022-11-25T06:37:45;15.43;;;3.67;;
39676;SDS011;27789;50.840;4.386;2022-11-25T06:40:10;13.70;;;4.65;;
39676;SDS011;27789;50.840;4.386;2022-11-25T06:42:37;17.88;;;3.67;;
39676;SDS011;27789;50.840;4.386;2022-11-25T06:45:03;16.27;;;3.85;;
39676;SDS011;27789;50.840;4.386;2022-11-25T06:47:29;17.02;;;3.45;;
39676;SDS011;27789;50.840;4.386;2022-11-25T06:49:55;17.98;;;3.78;;
39676;SDS011;27789;50.840;4.386;2022-11-25T06:52:20;18.35;;;3.40;;
39676;SDS011;27789;50.840;4.386;2022-11-25T06:54:46;21.15;;;2.97;;
39676;SDS011;27789;50.840;4.386;2022-11-25T06:57:14;17.58;;;3.65;;
39676;SDS011;27789;50.840;4.386;2022-11-25T06:59:41;13.80;;;2.70;;
39676;SDS011;27789;50.840;4.386;2022-11-25T07:02:08;18.80;;;4.80;;
39676;SDS011;27789;50.840;4.386;2022-11-25T07:04:36;10.25;;;3.78;;
39676;SDS011;27789;50.840;4.386;2022-11-25T07:07:01;14.00;;;3.47;;
39676;SDS011;27789;50.840;4.386;2022-11-25T07:09:27;17.77;;;3.65;;
39676;SDS011;27789;50.840;4.386;2022-11-25T07:11:53;17.85;;;4.07;;
39676;SDS011;27789;50.840;4.386;2022-11-25T07:14:19;17.58;;;3.92;;
39676;SDS011;27789;50.840;4.386;2022-11-25T07:16:45;19.85;;;4.68;;
39676;SDS011;27789;50.840;4.386;2022-11-25T07:19:11;17.48;;;3.58;;
39676;SDS011;27789;50.840;4.386;2022-11-25T07:21:38;19.08;;;4.13;;
39676;SDS011;27789;50.840;4.386;2022-11-25T07:24:05;16.58;;;4.18;;
39676;SDS011;27789;50.840;4.386;2022-11-25T07:26:32;18.42;;;3.58;;
39676;SDS011;27789;50.840;4.386;2022-11-25T07:29:01;16.88;;;3.58;;
39676;SDS011;27789;50.840;4.386;2022-11-25T07:31:29;16.92;;;3.50;;
39676;SDS011;27789;50.840;4.386;2022-11-25T07:36:27;14.13;;;3.63;;
39676;SDS011;27789;50.840;4.386;2022-11-25T07:38:53;21.83;;;3.63;;
39676;SDS011;27789;50.840;4.386;2022-11-25T07:41:20;17.85;;;4.13;;
39676;SDS011;27789;50.840;4.386;2022-11-25T07:43:48;20.13;;;4.30;;
39676;SDS011;27789;50.840;4.386;2022-11-25T07:49:01;16.58;;;4.43;;
39676;SDS011;27789;50.840;4.386;2022-11-25T07:51:29;30.08;;;7.07;;
39676;SDS011;27789;50.840;4.386;2022-11-25T07:53:57;14.65;;;4.00;;
39676;SDS011;27789;50.840;4.386;2022-11-25T07:56:24;14.68;;;4.90;;
39676;SDS011;27789;50.840;4.386;2022-11-25T07:58:51;18.60;;;4.10;;
39676;SDS011;27789;50.840;4.386;2022-11-25T08:01:16;27.30;;;4.60;;
39676;SDS011;27789;50.840;4.386;2022-11-25T08:03:44;21.02;;;4.63;;
39676;SDS011;27789;50.840;4.386;2022-11-25T08:06:14;26.23;;;4.93;;
39676;SDS011;27789;50.840;4.386;2022-11-25T08:08:42;24.08;;;5.32;;
39676;SDS011;27789;50.840;4.386;2022-11-25T08:11:09;26.45;;;4.53;;
39676;SDS011;27789;50.840;4.386;2022-11-25T08:13:39;16.25;;;4.35;;
39676;SDS011;27789;50.840;4.386;2022-11-25T08:16:05;16.20;;;4.07;;
39676;SDS011;27789;50.840;4.386;2022-11-25T08:18:31;19.67;;;4.47;;
39676;SDS011;27789;50.840;4.386;2022-11-25T08:20:58;24.77;;;4.72;;
39676;SDS011;27789;50.840;4.386;2022-11-25T08:23:25;17.35;;;4.10;;
39676;SDS011;27789;50.840;4.386;2022-11-25T08:25:51;23.15;;;4.20;;
39676;SDS011;27789;50.840;4.386;2022-11-25T08:28:17;18.35;;;5.22;;
39676;SDS011;27789;50.840;4.386;2022-11-25T08:30:42;18.20;;;4.68;;
39676;SDS011;27789;50.840;4.386;2022-11-25T08:33:08;17.33;;;5.10;;
39676;SDS011;27789;50.840;4.386;2022-11-25T08:35:33;16.83;;;4.30;;
39676;SDS011;27789;50.840;4.386;2022-11-25T08:38:05;21.50;;;5.78;;
39676;SDS011;27789;50.840;4.386;2022-11-25T08:40:33;27.35;;;5.30;;
39676;SDS011;27789;50.840;4.386;2022-11-25T08:43:00;14.68;;;4.28;;
39676;SDS011;27789;50.840;4.386;2022-11-25T08:45:26;22.00;;;5.55;;
39676;SDS011;27789;50.840;4.386;2022-11-25T08:47:52;20.65;;;6.10;;
39676;SDS011;27789;50.840;4.386;2022-11-25T08:50:18;21.05;;;4.38;;
39676;SDS011;27789;50.840;4.386;2022-11-25T08:52:44;11.70;;;4.88;;
39676;SDS011;27789;50.840;4.386;2022-11-25T08:55:10;16.33;;;4.85;;
39676;SDS011;27789;50.840;4.386;2022-11-25T08:57:36;20.27;;;4.95;;
39676;SDS011;27789;50.840;4.386;2022-11-25T09:00:03;25.85;;;5.20;;
39676;SDS011;27789;50.840;4.386;2022-11-25T09:02:31;15.77;;;5.30;;
39676;SDS011;27789;50.840;4.386;2022-11-25T09:04:57;22.33;;;4.70;;
39676;SDS011;27789;50.840;4.386;2022-11-25T09:07:23;18.98;;;4.18;;
39676;SDS011;27789;50.840;4.386;2022-11-25T09:09:48;24.85;;;4.57;;
39676;SDS011;27789;50.840;4.386;2022-11-25T09:12:14;20.83;;;4.70;;
39676;SDS011;27789;50.840;4.386;2022-11-25T09:14:40;22.02;;;4.07;;
39676;SDS011;27789;50.840;4.386;2022-11-25T09:17:11;11.50;;;3.92;;
39676;SDS011;27789;50.840;4.386;2022-11-25T09:19:37;12.23;;;3.85;;
39676;SDS011;27789;50.840;4.386;2022-11-25T09:22:03;8.88;;;3.05;;
39676;SDS011;27789;50.840;4.386;2022-11-25T09:24:29;12.10;;;3.05;;
39676;SDS011;27789;50.840;4.386;2022-11-25T09:26:55;18.63;;;3.50;;
39676;SDS011;27789;50.840;4.386;2022-11-25T09:29:20;13.00;;;3.40;;
39676;SDS011;27789;50.840;4.386;2022-11-25T09:31:46;21.63;;;4.47;;
39676;SDS011;27789;50.840;4.386;2022-11-25T09:34:11;15.88;;;3.55;;
39676;SDS011;27789;50.840;4.386;2022-11-25T09:36:37;18.23;;;3.17;;
39676;SDS011;27789;50.840;4.386;2022-11-25T09:39:03;12.55;;;3.80;;
39676;SDS011;27789;50.840;4.386;2022-11-25T09:44:36;13.60;;;3.33;;
39676;SDS011;27789;50.840;4.386;2022-11-25T09:50:16;14.13;;;4.28;;
39676;SDS011;27789;50.840;4.386;2022-11-25T09:55:49;11.73;;;3.35;;
39676;SDS011;27789;50.840;4.386;2022-11-25T10:05:45;14.38;;;3.35;;
39676;SDS011;27789;50.840;4.386;2022-11-25T10:08:24;19.13;;;3.40;;
39676;SDS011;27789;50.840;4.386;2022-11-25T10:16:28;8.35;;;2.92;;
39676;SDS011;27789;50.840;4.386;2022-11-25T10:18:57;9.38;;;2.90;;
39676;SDS011;27789;50.840;4.386;2022-11-25T10:21:25;14.00;;;3.22;;
39676;SDS011;27789;50.840;4.386;2022-11-25T10:23:51;12.95;;;3.50;;
39676;SDS011;27789;50.840;4.386;2022-11-25T10:26:18;11.02;;;3.97;;
39676;SDS011;27789;50.840;4.386;2022-11-25T10:28:50;11.75;;;3.40;;
39676;SDS011;27789;50.840;4.386;2022-11-25T10:31:31;6.43;;;1.90;;
39676;SDS011;27789;50.840;4.386;2022-11-25T10:34:00;6.88;;;2.53;;
39676;SDS011;27789;50.840;4.386;2022-11-25T10:36:30;6.78;;;2.03;;
39676;SDS011;27789;50.840;4.386;2022-11-25T10:41:49;6.75;;;2.40;;
39676;SDS011;27789;50.840;4.386;2022-11-25T10:44:37;8.43;;;2.00;;
39676;SDS011;27789;50.840;4.386;2022-11-25T10:52:39;5.30;;;2.47;;
39676;SDS011;27789;50.840;4.386;2022-11-25T10:55:12;10.32;;;3.42;;
39676;SDS011;27789;50.840;4.386;2022-11-25T10:57:38;8.38;;;3.40;;
39676;SDS011;27789;50.840;4.386;2022-11-25T11:00:07;14.68;;;3.15;;
39676;SDS011;27789;50.840;4.386;2022-11-25T11:02:50;12.65;;;3.15;;
39676;SDS011;27789;50.840;4.386;2022-11-25T11:10:41;8.85;;;3.55;;
39676;SDS011;27789;50.840;4.386;2022-11-25T11:15:56;15.10;;;3.55;;
39676;SDS011;27789;50.840;4.386;2022-11-25T11:18:27;12.23;;;3.55;;
39676;SDS011;27789;50.840;4.386;2022-11-25T11:23:50;12.63;;;4.15;;
39676;SDS011;27789;50.840;4.386;2022-11-25T11:26:21;10.30;;;3.15;;
39676;SDS011;27789;50.840;4.386;2022-11-25T11:28:56;9.68;;;3.10;;
39676;SDS011;27789;50.840;4.386;2022-11-25T11:31:37;6.90;;;3.13;;
39676;SDS011;27789;50.840;4.386;2022-11-25T11:39:37;15.57;;;3.45;;
39676;SDS011;27789;50.840;4.386;2022-11-25T11:45:02;12.35;;;3.72;;
39676;SDS011;27789;50.840;4.386;2022-11-25T12:03:58;13.85;;;3.50;;
39676;SDS011;27789;50.840;4.386;2022-11-25T12:06:36;9.90;;;3.43;;
39676;SDS011;27789;50.840;4.386;2022-11-25T12:09:03;12.13;;;4.20;;
39676;SDS011;27789;50.840;4.386;2022-11-25T12:11:44;19.42;;;4.38;;
39676;SDS011;27789;50.840;4.386;2022-11-25T12:16:54;15.68;;;4.38;;
39676;SDS011;27789;50.840;4.386;2022-11-25T12:19:29;12.10;;;4.03;;
39676;SDS011;27789;50.840;4.386;2022-11-25T12:22:06;12.88;;;3.78;;
39676;SDS011;27789;50.840;4.386;2022-11-25T12:27:46;12.02;;;4.40;;
39676;SDS011;27789;50.840;4.386;2022-11-25T12:30:23;19.58;;;4.45;;
39676;SDS011;27789;50.840;4.386;2022-11-25T12:33:09;12.00;;;3.95;;
39676;SDS011;27789;50.840;4.386;2022-11-25T12:35:51;17.88;;;4.38;;
39676;SDS011;27789;50.840;4.386;2022-11-25T12:48:46;13.50;;;3.75;;
39676;SDS011;27789;50.840;4.386;2022-11-25T12:53:53;12.35;;;4.30;;
39676;SDS011;27789;50.840;4.386;2022-11-25T12:56:28;15.88;;;4.95;;
39676;SDS011;27789;50.840;4.386;2022-11-25T13:02:21;14.82;;;4.03;;
39676;SDS011;27789;50.840;4.386;2022-11-25T13:05:17;11.65;;;3.83;;
39676;SDS011;27789;50.840;4.386;2022-11-25T13:08:06;15.70;;;3.38;;
39676;SDS011;27789;50.840;4.386;2022-11-25T13:13:28;14.85;;;5.00;;
39676;SDS011;27789;50.840;4.386;2022-11-25T13:16:08;20.30;;;4.63;;
39676;SDS011;27789;50.840;4.386;2022-11-25T13:18:36;17.42;;;4.18;;
39676;SDS011;27789;50.840;4.386;2022-11-25T13:21:08;16.70;;;5.03;;
39676;SDS011;27789;50.840;4.386;2022-11-25T13:34:45;31.70;;;5.28;;
39676;SDS011;27789;50.840;4.386;2022-11-25T13:42:45;18.92;;;4.55;;
39676;SDS011;27789;50.840;4.386;2022-11-25T13:47:50;13.43;;;4.18;;
39676;SDS011;27789;50.840;4.386;2022-11-25T13:55:33;23.77;;;4.80;;
39676;SDS011;27789;50.840;4.386;2022-11-25T14:24:33;22.00;;;4.78;;
39676;SDS011;27789;50.840;4.386;2022-11-25T14:27:17;21.65;;;4.65;;
39676;SDS011;27789;50.840;4.386;2022-11-25T14:29:58;19.88;;;4.20;;
39676;SDS011;27789;50.840;4.386;2022-11-25T14:32:27;15.30;;;4.15;;
39676;SDS011;27789;50.840;4.386;2022-11-25T14:40:37;21.85;;;5.25;;
39676;SDS011;27789;50.840;4.386;2022-11-25T14:48:35;17.60;;;4.30;;
39676;SDS011;27789;50.840;4.386;2022-11-25T14:51:05;19.85;;;5.45;;
39676;SDS011;27789;50.840;4.386;2022-11-25T14:53:37;25.92;;;5.20;;
39676;SDS011;27789;50.840;4.386;2022-11-25T14:56:07;24.83;;;4.15;;
39676;SDS011;27789;50.840;4.386;2022-11-25T14:58:33;23.50;;;4.72;;
39676;SDS011;27789;50.840;4.386;2022-11-25T15:01:00;20.67;;;4.75;;
39676;SDS011;27789;50.840;4.386;2022-11-25T15:03:29;26.20;;;5.47;;
39676;SDS011;27789;50.840;4.386;2022-11-25T15:05:56;14.57;;;4.32;;
39676;SDS011;27789;50.840;4.386;2022-11-25T15:08:25;20.02;;;4.45;;
39676;SDS011;27789;50.840;4.386;2022-11-25T15:10:58;25.02;;;4.97;;
39676;SDS011;27789;50.840;4.386;2022-11-25T15:13:28;27.50;;;5.82;;
39676;SDS011;27789;50.840;4.386;2022-11-25T15:16:07;25.52;;;6.10;;
39676;SDS011;27789;50.840;4.386;2022-11-25T15:18:46;14.80;;;4.40;;
39676;SDS011;27789;50.840;4.386;2022-11-25T15:21:22;17.70;;;4.55;;
39676;SDS011;27789;50.840;4.386;2022-11-25T15:23:54;11.18;;;3.90;;
39676;SDS011;27789;50.840;4.386;2022-11-25T15:26:24;22.02;;;4.63;;
39676;SDS011;27789;50.840;4.386;2022-11-25T15:29:10;23.38;;;4.80;;
39676;SDS011;27789;50.840;4.386;2022-11-25T15:31:37;23.50;;;5.55;;
39676;SDS011;27789;50.840;4.386;2022-11-25T15:34:06;16.20;;;5.22;;
39676;SDS011;27789;50.840;4.386;2022-11-25T15:36:35;24.60;;;5.53;;
39676;SDS011;27789;50.840;4.386;2022-11-25T15:41:40;23.65;;;4.88;;
39676;SDS011;27789;50.840;4.386;2022-11-25T15:44:16;21.02;;;5.15;;
39676;SDS011;27789;50.840;4.386;2022-11-25T15:46:53;24.65;;;6.32;;
39676;SDS011;27789;50.840;4.386;2022-11-25T15:49:25;25.63;;;6.18;;
39676;SDS011;27789;50.840;4.386;2022-11-25T15:51:52;23.48;;;5.65;;
39676;SDS011;27789;50.840;4.386;2022-11-25T15:54:37;26.85;;;6.03;;
39676;SDS011;27789;50.840;4.386;2022-11-25T15:59:48;20.63;;;5.28;;
39676;SDS011;27789;50.840;4.386;2022-11-25T16:10:22;28.70;;;5.75;;
39676;SDS011;27789;50.840;4.386;2022-11-25T16:18:25;20.65;;;5.15;;
39676;SDS011;27789;50.840;4.386;2022-11-25T16:21:00;29.02;;;6.28;;
39676;SDS011;27789;50.840;4.386;2022-11-25T16:23:31;22.95;;;5.75;;
39676;SDS011;27789;50.840;4.386;2022-11-25T16:26:10;23.77;;;5.78;;
39676;SDS011;27789;50.840;4.386;2022-11-25T16:28:59;16.42;;;4.97;;
39676;SDS011;27789;50.840;4.386;2022-11-25T16:31:26;18.67;;;5.47;;
39676;SDS011;27789;50.840;4.386;2022-11-25T16:33:58;23.10;;;5.40;;
39676;SDS011;27789;50.840;4.386;2022-11-25T16:36:33;22.75;;;6.10;;
39676;SDS011;27789;50.840;4.386;2022-11-25T16:38:59;24.02;;;5.55;;
39676;SDS011;27789;50.840;4.386;2022-11-25T16:41:24;30.27;;;6.28;;
39676;SDS011;27789;50.840;4.386;2022-11-25T16:43:51;26.20;;;6.55;;
39676;SDS011;27789;50.840;4.386;2022-11-25T16:46:17;22.13;;;5.80;;
39676;SDS011;27789;50.840;4.386;2022-11-25T16:48:44;28.13;;;7.07;;
39676;SDS011;27789;50.840;4.386;2022-11-25T16:51:18;23.05;;;6.68;;
39676;SDS011;27789;50.840;4.386;2022-11-25T16:53:44;26.08;;;6.32;;
39676;SDS011;27789;50.840;4.386;2022-11-25T16:56:12;22.00;;;6.57;;
39676;SDS011;27789;50.840;4.386;2022-11-25T16:58:42;31.27;;;7.53;;
39676;SDS011;27789;50.840;4.386;2022-11-25T17:01:12;27.95;;;6.82;;
39676;SDS011;27789;50.840;4.386;2022-11-25T17:03:40;30.13;;;6.60;;
39676;SDS011;27789;50.840;4.386;2022-11-25T17:06:10;20.95;;;6.38;;
39676;SDS011;27789;50.840;4.386;2022-11-25T17:08:38;31.23;;;7.45;;
39676;SDS011;27789;50.840;4.386;2022-11-25T17:11:04;33.30;;;7.40;;
39676;SDS011;27789;50.840;4.386;2022-11-25T17:13:30;30.42;;;8.80;;
39676;SDS011;27789;50.840;4.386;2022-11-25T17:15:55;32.58;;;7.28;;
39676;SDS011;27789;50.840;4.386;2022-11-25T17:18:21;26.42;;;8.70;;
39676;SDS011;27789;50.840;4.386;2022-11-25T17:20:49;30.63;;;7.07;;
39676;SDS011;27789;50.840;4.386;2022-11-25T17:23:15;30.58;;;7.60;;
39676;SDS011;27789;50.840;4.386;2022-11-25T17:25:41;19.25;;;6.35;;
39676;SDS011;27789;50.840;4.386;2022-11-25T17:28:15;21.58;;;8.20;;
39676;SDS011;27789;50.840;4.386;2022-11-25T17:30:43;31.38;;;7.07;;
39676;SDS011;27789;50.840;4.386;2022-11-25T17:33:17;27.45;;;7.25;;
39676;SDS011;27789;50.840;4.386;2022-11-25T17:35:44;24.02;;;7.00;;
39676;SDS011;27789;50.840;4.386;2022-11-25T17:38:17;42.88;;;10.80;;
39676;SDS011;27789;50.840;4.386;2022-11-25T17:40:44;29.10;;;8.68;;
39676;SDS011;27789;50.840;4.386;2022-11-25T17:43:13;26.35;;;7.80;;
39676;SDS011;27789;50.840;4.386;2022-11-25T17:45:41;34.78;;;8.18;;
39676;SDS011;27789;50.840;4.386;2022-11-25T17:48:08;27.90;;;10.75;;
39676;SDS011;27789;50.840;4.386;2022-11-25T17:50:36;28.85;;;8.68;;
39676;SDS011;27789;50.840;4.386;2022-11-25T17:53:02;32.05;;;9.75;;
39676;SDS011;27789;50.840;4.386;2022-11-25T17:55:27;29.42;;;8.40;;
39676;SDS011;27789;50.840;4.386;2022-11-25T17:57:53;39.78;;;9.50;;
39676;SDS011;27789;50.840;4.386;2022-11-25T18:00:20;30.95;;;8.25;;